Time;durP1;ratioP1;P1;durP2;ratioP2;P2;SDS_P1;SDS_P2;PMS_P1;PMS_P2;Temp;Humidity;BMP_temperature;BMP_pressure;BME280_temperature;BME280_humidity;BME280_pressure;Samples;Min_cycle;Max_cycle;Signal;HPM_P1;HPM_P2
2023/08/23 00:01:36;;;;;;;4.82;2.25;;;;;;;22.83;34.42;101608.59;5043436;28;20044;-73
2023/08/23 00:04:06;;;;;;;3.17;1.85;;;;;;;22.83;34.39;101608.59;5045769;28;20404;-73
2023/08/23 00:06:34;;;;;;;3.65;2.00;;;;;;;22.79;34.59;101615.63;5047934;28;20103;-73
2023/08/23 00:09:02;;;;;;;3.85;2.08;;;;;;;22.78;34.77;101610.25;5046627;28;20075;-73
2023/08/23 00:11:29;;;;;;;3.53;1.77;;;;;;;22.76;34.67;101607.63;5059735;28;20055;-73
2023/08/23 00:13:57;;;;;;;5.03;2.40;;;;;;;22.74;34.75;101617.28;5055185;28;20047;-73
2023/08/23 00:16:25;;;;;;;4.13;2.33;;;;;;;22.72;34.89;101611.03;5052867;28;20045;-73
2023/08/23 00:18:53;;;;;;;3.50;2.00;;;;;;;22.70;34.73;101611.22;5049177;28;20045;-74
2023/08/23 00:21:23;;;;;;;4.22;2.22;;;;;;;22.69;34.86;101603.91;5048096;28;20099;-73
2023/08/23 00:23:50;;;;;;;3.70;2.05;;;;;;;22.66;34.77;101604.31;5048450;28;20049;-73
2023/08/23 00:26:18;;;;;;;4.35;2.17;;;;;;;22.64;35.04;101590.56;5046024;28;20052;-73
2023/08/23 00:28:47;;;;;;;4.30;2.22;;;;;;;22.62;34.93;101595.47;5049901;28;20411;-73
2023/08/23 00:31:15;;;;;;;4.47;2.42;;;;;;;22.60;34.91;101594.78;5047533;28;20564;-73
2023/08/23 00:33:43;;;;;;;4.57;2.22;;;;;;;22.57;34.90;101591.56;5045669;28;20254;-73
2023/08/23 00:36:11;;;;;;;4.03;2.38;;;;;;;22.55;35.13;101593.66;5055925;28;20045;-73
2023/08/23 00:38:40;;;;;;;4.70;2.47;;;;;;;22.54;35.00;101590.00;5045823;28;20064;-73
2023/08/23 00:41:09;;;;;;;3.88;2.30;;;;;;;22.49;35.10;101598.06;5047714;28;20117;-73
2023/08/23 00:43:37;;;;;;;4.00;2.20;;;;;;;22.46;35.29;101594.78;5048840;28;20123;-73
2023/08/23 00:46:06;;;;;;;3.83;2.20;;;;;;;22.45;35.20;101595.84;5052071;28;20080;-73
2023/08/23 00:48:34;;;;;;;3.83;2.00;;;;;;;22.41;35.25;101600.09;5054800;28;20045;-73
2023/08/23 00:51:03;;;;;;;3.47;2.10;;;;;;;22.39;35.22;101607.78;5060533;28;20048;-73
2023/08/23 00:53:31;;;;;;;3.90;2.28;;;;;;;22.36;35.34;101608.16;5052228;28;20049;-73
2023/08/23 00:56:00;;;;;;;4.60;2.15;;;;;;;22.37;35.22;101615.47;5045483;28;20581;-73
2023/08/23 00:58:29;;;;;;;4.18;2.03;;;;;;;22.34;35.29;101608.41;5052392;28;20052;-73
2023/08/23 01:00:58;;;;;;;4.20;2.42;;;;;;;22.32;35.80;101610.50;5047285;28;20048;-73
2023/08/23 01:03:26;;;;;;;4.38;2.35;;;;;;;22.30;35.65;101603.38;5051991;28;20120;-73
2023/08/23 01:06:12;;;;;;;4.00;2.22;;;;;;;22.32;36.39;101604.91;5064992;28;20044;-73
2023/08/23 01:08:51;;;;;;;4.75;2.58;;;;;;;22.27;36.33;101596.25;5048786;28;20053;-73
2023/08/23 01:11:28;;;;;;;5.35;2.80;;;;;;;22.24;36.24;101602.25;5044402;28;20127;-73
2023/08/23 01:14:02;;;;;;;4.32;2.50;;;;;;;22.20;35.91;101598.97;5047484;28;20135;-73
2023/08/23 01:16:32;;;;;;;4.18;2.50;;;;;;;22.16;35.86;101606.00;5047573;28;20047;-72
2023/08/23 01:19:04;;;;;;;3.70;2.28;;;;;;;22.14;35.81;101602.53;5053743;28;20067;-73
2023/08/23 01:21:34;;;;;;;3.10;1.85;;;;;;;22.10;36.11;101597.50;5042686;28;20053;-73
2023/08/23 01:24:08;;;;;;;4.70;2.28;;;;;;;22.09;35.84;101591.09;5054325;28;20040;-73
2023/08/23 01:26:39;;;;;;;3.35;1.95;;;;;;;22.06;36.21;101597.03;5042747;28;20143;-73
2023/08/23 01:29:08;;;;;;;5.32;2.20;;;;;;;22.03;35.97;101593.75;5050980;28;20492;-73
2023/08/23 01:31:40;;;;;;;4.10;1.90;;;;;;;22.02;36.29;101600.41;5047726;28;20057;-73
2023/08/23 01:34:16;;;;;;;3.17;1.95;;;;;;;22.00;36.44;101595.03;5040828;28;20136;-73
2023/08/23 01:36:46;;;;;;;3.83;2.08;;;;;;;21.96;36.28;101587.22;5050219;28;20532;-73
2023/08/23 01:39:17;;;;;;;4.18;1.90;;;;;;;21.95;36.29;101588.28;5056477;28;20635;-73
2023/08/23 01:41:45;;;;;;;3.78;2.25;;;;;;;21.92;36.43;101585.91;5048520;28;20049;-73
2023/08/23 01:44:14;;;;;;;4.22;2.17;;;;;;;21.89;36.28;101585.19;5048606;28;20169;-73
2023/08/23 01:46:42;;;;;;;3.47;1.98;;;;;;;21.88;36.45;101577.88;5051134;28;20052;-73
2023/08/23 01:49:11;;;;;;;3.72;2.28;;;;;;;21.89;36.50;101582.41;5047040;28;20041;-72
2023/08/23 01:51:39;;;;;;;3.40;1.80;;;;;;;21.86;36.21;101576.34;5050186;28;20041;-73
2023/08/23 01:54:07;;;;;;;3.47;1.85;;;;;;;21.85;36.39;101581.03;5046590;28;20136;-73
2023/08/23 01:56:36;;;;;;;4.20;2.13;;;;;;;21.86;36.34;101582.78;5046409;28;20144;-73
2023/08/23 01:59:04;;;;;;;3.63;2.30;;;;;;;21.82;36.60;101581.44;5045761;28;20087;-73
2023/08/23 02:01:32;;;;;;;4.45;2.35;;;;;;;21.82;36.45;101577.78;5040878;28;20465;-73
2023/08/23 02:04:00;;;;;;;3.35;2.10;;;;;;;21.80;36.52;101582.69;5047715;28;20041;-72
2023/08/23 02:06:28;;;;;;;4.93;2.38;;;;;;;21.77;36.32;101586.69;5049186;28;20048;-73
2023/08/23 02:08:56;;;;;;;5.13;2.30;;;;;;;21.76;36.80;101582.22;5049839;28;20069;-73
2023/08/23 02:11:24;;;;;;;3.42;2.03;;;;;;;21.74;36.48;101589.88;5055224;28;20450;-73
2023/08/23 02:13:53;;;;;;;4.47;2.00;;;;;;;21.74;36.66;101589.88;5050792;28;20044;-73
2023/08/23 02:16:21;;;;;;;4.00;2.00;;;;;;;21.69;36.75;101581.22;5046391;28;20057;-73
2023/08/23 02:18:49;;;;;;;5.55;2.28;;;;;;;21.68;36.48;101590.66;5054973;28;20052;-73
2023/08/23 02:21:17;;;;;;;3.40;2.08;;;;;;;21.65;36.46;101577.09;5051909;28;20033;-73
2023/08/23 02:23:45;;;;;;;3.95;2.17;;;;;;;21.63;36.62;101583.91;5050341;28;20128;-73
2023/08/23 02:26:14;;;;;;;4.45;2.40;;;;;;;21.61;36.80;101586.00;5063666;28;20045;-73
2023/08/23 02:28:43;;;;;;;4.65;2.60;;;;;;;21.57;36.86;101582.75;5056726;28;20127;-73
2023/08/23 02:31:13;;;;;;;4.63;2.40;;;;;;;21.57;36.79;101585.53;5052789;28;20060;-72
2023/08/23 02:33:40;;;;;;;3.85;2.10;;;;;;;21.52;36.80;101594.44;5049675;28;20128;-72
2023/08/23 02:36:09;;;;;;;4.78;2.30;;;;;;;21.51;36.88;101587.16;5052760;28;20057;-72
2023/08/23 02:38:36;;;;;;;4.75;2.30;;;;;;;21.50;36.44;101587.34;5041779;28;20107;-73
2023/08/23 02:41:05;;;;;;;4.60;2.10;;;;;;;21.47;36.70;101574.66;5051570;28;20106;-73
2023/08/23 02:43:33;;;;;;;5.05;2.30;;;;;;;21.47;36.56;101573.78;5047475;28;20080;-73
2023/08/23 02:46:00;;;;;;;4.47;2.00;;;;;;;21.44;36.61;101569.47;5040006;28;20049;-72
2023/08/23 02:48:30;;;;;;;5.65;2.47;;;;;;;21.45;36.50;101573.97;5042267;28;20132;-72
2023/08/23 02:50:59;;;;;;;4.53;2.47;;;;;;;21.41;36.97;101566.19;5049230;28;20064;-72
2023/08/23 02:53:27;;;;;;;5.78;2.33;;;;;;;21.39;36.74;101563.59;5051432;28;20049;-73
2023/08/23 02:55:55;;;;;;;4.00;2.00;;;;;;;21.37;36.65;101562.03;5053938;28;20135;-72
2023/08/23 02:58:23;;;;;;;4.38;2.25;;;;;;;21.35;36.73;101565.03;5047301;28;20044;-73
2023/08/23 03:00:51;;;;;;;5.32;2.50;;;;;;;21.34;36.54;101559.66;5041515;28;20045;-72
2023/08/23 03:03:19;;;;;;;5.05;2.35;;;;;;;21.34;36.66;101559.66;5051106;28;20465;-72
2023/08/23 03:05:55;;;;;;;3.47;2.20;;;;;;;21.35;36.97;101556.69;5037179;28;20045;-72
2023/08/23 03:08:23;;;;;;;3.83;2.10;;;;;;;21.29;36.76;101560.19;5051352;28;20056;-72
2023/08/23 03:11:01;;;;;;;3.67;2.20;;;;;;;21.28;36.61;101564.03;5048446;28;20053;-73
2023/08/23 03:13:29;;;;;;;4.40;2.22;;;;;;;21.26;36.73;101555.03;5050920;28;20140;-72
2023/08/23 03:15:58;;;;;;;3.30;1.90;;;;;;;21.26;36.75;101559.75;5048100;28;20072;-72
2023/08/23 03:18:27;;;;;;;4.00;2.08;;;;;;;21.24;36.83;101556.22;5046821;28;20055;-72
2023/08/23 03:20:56;;;;;;;4.70;2.40;;;;;;;21.26;36.77;101562.53;5040130;28;20397;-71
2023/08/23 03:23:25;;;;;;;3.30;2.03;;;;;;;21.21;37.04;101560.25;5045938;28;20049;-72
2023/08/23 03:25:55;;;;;;;4.72;2.50;;;;;;;21.21;37.04;101551.91;5044019;28;20500;-71
2023/08/23 03:28:23;;;;;;;4.57;2.60;;;;;;;21.19;36.89;101551.22;5046122;28;20052;-72
2023/08/23 03:30:50;;;;;;;4.13;2.17;;;;;;;21.19;36.94;101547.59;5034542;28;20037;-72
2023/08/23 03:33:18;;;;;;;3.63;2.17;;;;;;;21.17;36.68;101547.78;5040318;28;20068;-72
2023/08/23 03:35:53;;;;;;;4.20;2.10;;;;;;;21.19;36.84;101544.81;5039204;28;20535;-72
2023/08/23 03:38:22;;;;;;;3.80;2.10;;;;;;;21.15;36.86;101555.44;5041258;28;20061;-72
2023/08/23 03:40:51;;;;;;;4.50;2.13;;;;;;;21.13;36.75;101555.63;5042399;28;20065;-72
2023/08/23 03:43:19;;;;;;;3.53;2.15;;;;;;;21.11;36.82;101554.06;5046340;28;20127;-72
2023/08/23 03:45:48;;;;;;;4.43;2.00;;;;;;;21.10;37.00;101558.78;5051894;28;20041;-72
2023/08/23 03:48:18;;;;;;;3.67;2.08;;;;;;;21.10;36.58;101560.72;5047787;28;20052;-72
2023/08/23 03:50:46;;;;;;;4.00;2.40;;;;;;;21.07;36.92;101553.59;5045708;28;20041;-72
2023/08/23 03:53:14;;;;;;;3.70;2.17;;;;;;;21.07;37.11;101549.94;5053373;28;20596;-71
2023/08/23 03:55:43;;;;;;;3.58;2.20;;;;;;;21.06;37.21;101554.63;5046549;28;20040;-72
2023/08/23 03:58:11;;;;;;;4.60;2.15;;;;;;;21.02;36.90;101550.50;5050454;28;20710;-72
2023/08/23 04:00:39;;;;;;;3.85;2.30;;;;;;;21.00;36.96;101552.59;5032342;28;20127;-72
2023/08/23 04:03:07;;;;;;;4.43;2.35;;;;;;;20.98;37.26;101551.94;5049004;28;20049;-72
2023/08/23 04:05:40;;;;;;;4.57;2.20;;;;;;;20.99;37.29;101548.09;5042976;28;20077;-72
2023/08/23 04:08:08;;;;;;;3.53;2.22;;;;;;;20.93;37.29;101546.06;5043167;28;20052;-72
2023/08/23 04:10:36;;;;;;;4.68;2.13;;;;;;;20.92;37.36;101541.53;5040276;28;20033;-72
2023/08/23 04:13:07;;;;;;;4.60;2.30;;;;;;;20.94;37.31;101546.94;5056133;28;20512;-72
2023/08/23 04:15:35;;;;;;;4.88;2.28;;;;;;;20.89;37.42;101547.47;5050446;28;20198;-72
2023/08/23 04:18:04;;;;;;;5.10;2.53;;;;;;;20.88;37.53;101536.53;5048559;28;20080;-72
2023/08/23 04:20:32;;;;;;;4.18;2.25;;;;;;;20.87;37.61;101543.13;5051700;28;20044;-72
2023/08/23 04:23:00;;;;;;;4.45;2.22;;;;;;;20.86;37.29;101541.44;5051697;28;20105;-72
2023/08/23 04:25:28;;;;;;;4.93;2.20;;;;;;;20.85;37.47;101543.34;5047938;28;20041;-71
2023/08/23 04:27:56;;;;;;;3.17;1.95;;;;;;;20.84;37.73;101546.31;5062598;28;20047;-74
2023/08/23 04:30:25;;;;;;;4.28;2.28;;;;;;;20.83;37.91;101550.13;5052091;28;20567;-74
2023/08/23 04:32:56;;;;;;;3.55;2.10;;;;;;;20.78;37.57;101559.88;5049123;28;20526;-74
2023/08/23 04:35:25;;;;;;;4.07;2.28;;;;;;;20.80;37.82;101561.63;5051767;28;20049;-73
2023/08/23 04:37:53;;;;;;;4.25;2.20;;;;;;;20.78;37.70;101572.94;5058164;28;20577;-72
2023/08/23 04:40:21;;;;;;;3.63;2.15;;;;;;;20.78;37.49;101568.22;5051106;28;20057;-73
2023/08/23 04:42:49;;;;;;;4.32;2.60;;;;;;;20.75;37.73;101570.53;5051688;28;20041;-73
2023/08/23 04:45:17;;;;;;;3.53;1.98;;;;;;;20.74;38.17;101566.00;5065419;28;20068;-73
2023/08/23 04:47:47;;;;;;;4.30;2.25;;;;;;;20.75;37.85;101573.31;5046710;28;20047;-73
2023/08/23 04:50:15;;;;;;;4.28;2.33;;;;;;;20.71;37.72;101564.47;5048774;28;20079;-73
2023/08/23 04:52:43;;;;;;;5.60;2.63;;;;;;;20.69;37.91;101561.03;5055136;28;20074;-73
2023/08/23 04:55:14;;;;;;;4.30;2.40;;;;;;;20.69;38.00;101568.50;5049801;28;20052;-73
2023/08/23 04:57:42;;;;;;;3.92;2.20;;;;;;;20.67;37.92;101568.69;5051902;28;20044;-73
2023/08/23 05:00:11;;;;;;;5.55;2.42;;;;;;;20.67;37.95;101571.47;5047116;28;20061;-73
2023/08/23 05:02:39;;;;;;;3.88;2.53;;;;;;;20.66;37.86;101566.06;5048590;28;20047;-73
2023/08/23 05:05:09;;;;;;;4.07;2.25;;;;;;;20.67;38.25;101571.47;5052126;28;20049;-73
2023/08/23 05:07:37;;;;;;;3.42;2.50;;;;;;;20.64;38.03;101570.94;5055517;28;20428;-73
2023/08/23 05:10:08;;;;;;;4.65;2.38;;;;;;;20.65;38.32;101564.34;5047787;28;20086;-73
2023/08/23 05:12:36;;;;;;;3.65;2.10;;;;;;;20.61;38.15;101566.59;5050385;28;20051;-73
2023/08/23 05:15:04;;;;;;;5.00;2.63;;;;;;;20.62;38.29;101571.13;5049318;28;20063;-72
2023/08/23 05:17:32;;;;;;;4.82;2.65;;;;;;;20.61;38.19;101569.38;5042319;28;20053;-73
2023/08/23 05:20:03;;;;;;;4.72;2.55;;;;;;;20.60;38.27;101573.25;5045117;28;20138;-72
2023/08/23 05:22:32;;;;;;;4.80;2.58;;;;;;;20.62;38.47;101576.69;5057527;28;20095;-73
2023/08/23 05:25:01;;;;;;;5.30;2.40;;;;;;;20.60;38.16;101575.16;5059787;28;20484;-74
2023/08/23 05:27:29;;;;;;;4.60;2.50;;;;;;;20.59;38.49;101577.06;5033701;28;20143;-64
2023/08/23 05:29:59;;;;;;;5.38;2.72;;;;;;;20.59;38.25;101579.84;5039945;28;20040;-63
2023/08/23 05:32:27;;;;;;;5.75;2.90;;;;;;;20.58;38.27;101575.31;5046220;28;20511;-64
2023/08/23 05:34:56;;;;;;;4.28;2.67;;;;;;;20.57;38.37;101579.13;5046495;28;20144;-64
2023/08/23 05:37:24;;;;;;;4.15;2.55;;;;;;;20.57;38.37;101579.13;5043237;28;20048;-64
2023/08/23 05:39:54;;;;;;;4.63;2.72;;;;;;;20.59;38.70;101581.75;5043267;28;20665;-64
2023/08/23 05:42:23;;;;;;;5.45;2.88;;;;;;;20.57;38.26;101581.03;5042417;28;20045;-65
2023/08/23 05:44:51;;;;;;;4.95;2.97;;;;;;;20.56;38.53;101582.94;5046905;28;20148;-65
2023/08/23 05:47:20;;;;;;;5.20;2.75;;;;;;;20.57;38.71;101578.25;5045503;28;20049;-64
2023/08/23 05:49:48;;;;;;;5.60;3.25;;;;;;;20.58;38.87;101577.22;5039980;28;20049;-65
2023/08/23 05:52:16;;;;;;;5.22;3.25;;;;;;;20.58;39.03;101580.00;5047021;28;20599;-65
2023/08/23 05:54:44;;;;;;;5.00;2.95;;;;;;;20.60;38.98;101578.81;5049203;28;20562;-65
2023/08/23 05:57:13;;;;;;;5.20;3.38;;;;;;;20.64;39.00;101570.94;5045094;28;20088;-65
2023/08/23 05:59:41;;;;;;;5.43;3.22;;;;;;;20.63;38.89;101569.22;5046406;28;20064;-64
2023/08/23 06:02:09;;;;;;;5.35;3.30;;;;;;;20.64;39.01;101569.03;5047065;28;20171;-65
2023/08/23 06:04:40;;;;;;;5.65;3.33;;;;;;;20.65;38.87;101570.75;5046027;28;20041;-65
2023/08/23 06:07:08;;;;;;;3.92;2.85;;;;;;;20.67;38.88;101582.59;5038593;28;20464;-64
2023/08/23 06:09:36;;;;;;;6.35;3.47;;;;;;;20.69;39.11;101579.63;5041490;28;20041;-65
2023/08/23 06:12:05;;;;;;;5.00;3.65;;;;;;;20.72;39.08;101582.00;5041536;28;20065;-66
2023/08/23 06:14:34;;;;;;;5.95;3.80;;;;;;;20.73;38.81;101576.28;5042192;28;20044;-65
2023/08/23 06:17:02;;;;;;;6.30;3.45;;;;;;;20.72;39.20;101573.66;5033991;28;20304;-65
2023/08/23 06:19:30;;;;;;;6.40;3.80;;;;;;;20.73;39.16;101567.06;5040983;28;20135;-64
2023/08/23 06:21:58;;;;;;;6.10;3.90;;;;;;;20.75;39.05;101570.53;5047441;28;20494;-68
2023/08/23 06:24:26;;;;;;;6.45;4.03;;;;;;;20.77;39.04;101576.78;5043110;28;20052;-68
2023/08/23 06:26:54;;;;;;;6.25;3.95;;;;;;;20.77;39.15;101574.00;5037355;28;20124;-68
2023/08/23 06:29:22;;;;;;;6.88;3.72;;;;;;;20.78;39.30;101572.94;5045975;28;20083;-68
2023/08/23 06:31:51;;;;;;;6.40;4.43;;;;;;;20.82;39.12;101573.44;5041511;28;20079;-68
2023/08/23 06:34:19;;;;;;;5.47;4.20;;;;;;;20.81;39.32;101571.69;5040810;28;20045;-67
2023/08/23 06:36:47;;;;;;;6.75;4.28;;;;;;;20.83;39.54;101576.03;5043824;28;20622;-67
2023/08/23 06:39:16;;;;;;;5.43;3.80;;;;;;;20.84;39.38;101576.91;5043512;28;20136;-68
2023/08/23 06:42:00;;;;;;;8.00;4.22;;;;;;;20.85;39.45;101575.88;5048357;28;20036;-68
2023/08/23 06:44:28;;;;;;;6.38;4.13;;;;;;;20.88;39.53;101569.91;5050672;28;20068;-71
2023/08/23 06:46:57;;;;;;;6.65;4.22;;;;;;;20.91;39.52;101572.34;5052441;28;20048;-67
2023/08/23 06:49:25;;;;;;;5.43;3.88;;;;;;;20.91;39.78;101566.78;5045424;28;20128;-69
2023/08/23 06:51:54;;;;;;;6.50;4.32;;;;;;;20.92;39.73;101569.38;5039413;28;20033;-69
2023/08/23 06:54:21;;;;;;;7.43;4.28;;;;;;;20.97;39.93;101574.38;5047020;28;20055;-71
2023/08/23 06:56:49;;;;;;;6.22;4.32;;;;;;;20.99;40.22;101575.91;5046805;28;20121;-71
2023/08/23 06:59:17;;;;;;;6.82;4.32;;;;;;;21.04;40.32;101597.63;5049070;28;20104;-70
2023/08/23 07:01:46;;;;;;;7.68;4.97;;;;;;;21.08;39.97;101588.72;5037249;28;20051;-66
2023/08/23 07:04:15;;;;;;;9.13;5.18;;;;;;;21.17;39.99;101594.22;5043203;28;20140;-69
2023/08/23 07:06:43;;;;;;;8.48;5.32;;;;;;;21.20;40.37;101593.84;5038184;28;20145;-68
2023/08/23 07:09:11;;;;;;;7.45;5.03;;;;;;;21.27;40.31;101600.44;5044105;28;20103;-71
2023/08/23 07:11:39;;;;;;;7.05;4.90;;;;;;;21.34;40.30;101605.06;5047768;28;20123;-72
2023/08/23 07:14:08;;;;;;;5.57;4.50;;;;;;;21.42;40.45;101598.56;5043694;28;20224;-72
2023/08/23 07:16:36;;;;;;;6.85;4.28;;;;;;;21.51;40.71;101605.78;5038489;28;20610;-73
2023/08/23 07:19:04;;;;;;;7.82;4.65;;;;;;;21.59;40.60;101608.50;5043938;28;20072;-72
2023/08/23 07:21:34;;;;;;;9.82;5.35;;;;;;;21.73;40.22;101609.56;5043969;28;20995;-71
2023/08/23 07:24:02;;;;;;;7.68;4.97;;;;;;;21.79;40.47;101612.47;5035044;28;20055;-71
2023/08/23 07:26:30;;;;;;;6.15;4.20;;;;;;;21.88;40.48;101616.91;5040831;28;20618;-72
2023/08/23 07:28:58;;;;;;;6.35;4.95;;;;;;;21.98;40.48;101622.22;5039312;28;20583;-72
2023/08/23 07:31:26;;;;;;;7.40;4.57;;;;;;;22.09;40.56;101620.91;5038298;28;20076;-72
2023/08/23 07:33:54;;;;;;;6.88;4.38;;;;;;;22.20;40.10;101617.59;5037680;28;20124;-72
2023/08/23 07:36:22;;;;;;;7.05;4.15;;;;;;;22.31;40.12;101624.63;5042265;28;20313;-72
2023/08/23 07:38:51;;;;;;;5.95;4.43;;;;;;;22.44;40.01;101628.44;5046975;28;20136;-73
2023/08/23 07:41:19;;;;;;;6.68;4.32;;;;;;;22.53;40.01;101624.53;5041752;28;20560;-72
2023/08/23 07:43:47;;;;;;;5.07;4.18;;;;;;;22.64;39.82;101612.88;5041438;28;20045;-72
2023/08/23 07:46:15;;;;;;;8.00;4.40;;;;;;;22.76;39.78;101623.53;5041328;28;20132;-72
2023/08/23 07:48:43;;;;;;;6.25;4.50;;;;;;;22.85;39.58;101620.41;5037536;28;20041;-73
2023/08/23 07:51:10;;;;;;;7.32;4.30;;;;;;;22.98;39.54;101630.88;5039419;28;20068;-73
2023/08/23 07:53:41;;;;;;;6.03;3.65;;;;;;;23.08;39.08;101623.06;5042557;28;20229;-73
2023/08/23 07:56:11;;;;;;;4.85;3.67;;;;;;;23.21;38.74;101631.59;5042593;28;20277;-73
2023/08/23 07:58:43;;;;;;;5.60;3.42;;;;;;;23.30;38.86;101632.31;5047230;28;20491;-73
2023/08/23 08:01:11;;;;;;;5.63;3.45;;;;;;;23.42;38.60;101630.72;5053426;28;20052;-73
2023/08/23 08:03:39;;;;;;;5.65;3.60;;;;;;;23.52;38.44;101642.41;5045061;28;20133;-73
2023/08/23 08:06:07;;;;;;;6.50;3.78;;;;;;;23.63;38.42;101639.09;5042245;28;20045;-72
2023/08/23 08:08:39;;;;;;;4.45;3.20;;;;;;;23.74;38.30;101634.88;5044387;28;20052;-72
2023/08/23 08:11:07;;;;;;;5.53;3.17;;;;;;;23.83;38.32;101638.41;5047738;28;20040;-73
2023/08/23 08:13:36;;;;;;;4.40;3.22;;;;;;;23.98;38.09;101639.19;5045650;28;20137;-72
2023/08/23 08:16:07;;;;;;;7.18;3.67;;;;;;;24.09;37.80;101646.97;5045288;28;20053;-71
2023/08/23 08:18:35;;;;;;;6.70;3.50;;;;;;;24.14;37.80;101642.53;5037591;28;20045;-71
2023/08/23 08:21:03;;;;;;;4.82;3.05;;;;;;;24.29;37.77;101644.31;5043870;28;20513;-72
2023/08/23 08:23:31;;;;;;;5.38;3.30;;;;;;;24.38;37.31;101635.59;5046865;28;20036;-71
2023/08/23 08:25:59;;;;;;;5.60;3.22;;;;;;;24.49;37.20;101643.38;5049385;28;20049;-70
2023/08/23 08:28:27;;;;;;;4.50;3.05;;;;;;;24.59;36.90;101639.34;5037023;28;20047;-72
2023/08/23 08:30:57;;;;;;;6.28;3.30;;;;;;;24.70;36.61;101642.41;5043717;28;20041;-73
2023/08/23 08:33:25;;;;;;;5.00;3.28;;;;;;;24.78;36.58;101639.44;5046616;28;20049;-73
2023/08/23 08:35:53;;;;;;;6.15;2.90;;;;;;;24.88;36.50;101651.09;5059903;28;20071;-73
2023/08/23 08:38:22;;;;;;;5.22;3.53;;;;;;;24.99;36.31;101646.84;5043006;28;20053;-71
2023/08/23 08:40:51;;;;;;;5.07;3.45;;;;;;;25.09;35.88;101647.31;5041066;28;20438;-71
2023/08/23 08:43:19;;;;;;;6.45;3.60;;;;;;;25.18;35.55;101650.78;5046685;28;20094;-71
2023/08/23 08:45:46;;;;;;;5.18;3.58;;;;;;;25.27;35.53;101649.50;5038555;28;20099;-72
2023/08/23 08:48:16;;;;;;;6.13;4.05;;;;;;;25.38;35.21;101648.91;5044366;28;20106;-71
2023/08/23 08:50:45;;;;;;;6.15;3.72;;;;;;;25.43;35.16;101643.50;5040358;28;20111;-71
2023/08/23 08:53:16;;;;;;;6.32;4.32;;;;;;;25.52;34.90;101647.84;5047250;28;20073;-67
2023/08/23 08:55:46;;;;;;;5.38;3.78;;;;;;;25.56;34.91;101632.31;5040641;28;20045;-71
2023/08/23 08:58:19;;;;;;;4.97;3.20;;;;;;;25.65;35.01;101638.56;5043140;28;20551;-70
2023/08/23 09:00:49;;;;;;;4.43;3.20;;;;;;;25.73;34.84;101643.97;5038055;28;20041;-71
2023/08/23 09:03:19;;;;;;;5.80;3.67;;;;;;;25.79;34.58;101643.13;5044387;28;20065;-71
2023/08/23 09:05:48;;;;;;;5.70;3.95;;;;;;;25.86;34.35;101637.50;5041629;28;20413;-70
2023/08/23 09:08:16;;;;;;;5.03;3.85;;;;;;;25.92;34.09;101628.22;5045347;28;20037;-71
2023/08/23 09:10:44;;;;;;;5.18;3.90;;;;;;;25.98;34.07;101621.72;5043805;28;20568;-71
2023/08/23 09:13:12;;;;;;;6.15;4.13;;;;;;;26.05;34.01;101625.38;5047514;28;20053;-71
2023/08/23 09:15:40;;;;;;;6.40;4.07;;;;;;;26.12;33.76;101622.63;5043879;28;20542;-70
2023/08/23 09:18:10;;;;;;;5.03;3.92;;;;;;;26.19;33.94;101623.47;5047142;28;20049;-71
2023/08/23 09:20:39;;;;;;;5.15;4.30;;;;;;;26.29;33.87;101623.88;5042583;28;20041;-71
2023/08/23 09:23:07;;;;;;;5.38;4.05;;;;;;;26.33;33.49;101622.34;5041981;28;20497;-70
2023/08/23 09:25:35;;;;;;;6.95;4.68;;;;;;;26.41;33.41;101624.03;5048474;28;20040;-71
2023/08/23 09:28:04;;;;;;;5.95;4.82;;;;;;;26.47;32.99;101621.19;5044763;28;20095;-71
2023/08/23 09:30:34;;;;;;;6.30;4.47;;;;;;;26.56;32.88;101621.81;5045361;28;20059;-71
2023/08/23 09:33:03;;;;;;;6.22;4.78;;;;;;;26.58;33.27;101622.47;5050296;28;20455;-72
2023/08/23 09:35:32;;;;;;;5.05;4.50;;;;;;;26.65;32.88;101617.72;5039501;28;20156;-71
2023/08/23 09:38:01;;;;;;;7.32;4.15;;;;;;;26.72;32.73;101610.09;5045602;28;20048;-72
2023/08/23 09:40:29;;;;;;;6.70;4.22;;;;;;;26.75;32.58;101620.91;5039253;28;20879;-72
2023/08/23 09:42:57;;;;;;;7.80;5.55;;;;;;;26.81;32.67;101602.28;5051210;28;20045;-72
2023/08/23 09:45:27;;;;;;;5.28;4.40;;;;;;;26.87;32.15;101609.84;5050221;28;20074;-72
2023/08/23 09:47:56;;;;;;;6.65;5.07;;;;;;;26.92;32.22;101613.69;5054593;28;20086;-72
2023/08/23 09:50:26;;;;;;;8.10;5.05;;;;;;;26.96;32.33;101609.31;5044345;28;20065;-72
2023/08/23 09:53:00;;;;;;;6.45;5.03;;;;;;;27.02;31.80;101601.97;5048508;28;20069;-72
2023/08/23 09:55:29;;;;;;;8.00;5.35;;;;;;;27.06;31.91;101600.41;5042696;28;20080;-72
2023/08/23 09:57:58;;;;;;;6.68;5.05;;;;;;;27.07;31.86;101603.00;5038922;28;20413;-72
2023/08/23 10:00:27;;;;;;;6.47;5.05;;;;;;;27.13;32.28;101592.81;5047024;28;20045;-72
2023/08/23 10:02:57;;;;;;;6.18;4.93;;;;;;;27.17;32.15;101601.69;5044185;28;20033;-72
2023/08/23 10:05:26;;;;;;;6.80;5.30;;;;;;;27.21;31.85;101597.31;5043508;28;20152;-72
2023/08/23 10:07:57;;;;;;;5.78;4.38;;;;;;;27.25;31.89;101595.78;5043955;28;20029;-72
2023/08/23 10:10:26;;;;;;;6.43;4.15;;;;;;;27.31;31.87;101600.50;5049025;28;20056;-71
2023/08/23 10:13:00;;;;;;;5.80;4.15;;;;;;;27.37;31.31;101591.13;5049219;28;20041;-72
2023/08/23 10:15:32;;;;;;;6.18;4.10;;;;;;;27.42;31.20;101594.16;5042241;28;20048;-72
2023/08/23 10:18:02;;;;;;;5.93;3.90;;;;;;;27.48;31.51;101584.78;5041576;28;20044;-73
2023/08/23 10:20:34;;;;;;;4.75;3.50;;;;;;;27.56;31.24;101583.63;5048932;28;20413;-71
2023/08/23 10:23:10;;;;;;;5.32;4.22;;;;;;;27.57;31.84;101582.56;5047101;28;20063;-71
2023/08/23 10:25:38;;;;;;;7.43;5.90;;;;;;;27.65;31.66;101583.13;5043200;28;20132;-71
2023/08/23 10:28:08;;;;;;;7.60;5.03;;;;;;;27.75;31.42;101591.06;5044080;28;20064;-71
2023/08/23 10:30:41;;;;;;;7.72;4.60;;;;;;;27.82;30.89;101589.06;5041507;28;20048;-72
2023/08/23 10:33:10;;;;;;;5.75;4.25;;;;;;;27.86;31.54;101581.88;5047234;28;20420;-71
2023/08/23 10:35:40;;;;;;;5.90;4.30;;;;;;;27.92;31.37;101589.38;5033160;28;20037;-71
2023/08/23 10:38:09;;;;;;;6.32;3.92;;;;;;;27.99;31.07;101587.38;5044253;28;20087;-72
2023/08/23 10:40:38;;;;;;;4.90;3.38;;;;;;;28.05;31.16;101582.75;5056727;28;20103;-71
2023/08/23 10:43:13;;;;;;;7.50;4.18;;;;;;;28.14;30.27;101584.16;5047064;28;20139;-71
2023/08/23 10:45:55;;;;;;;6.07;3.60;;;;;;;28.18;30.02;101591.06;5040049;28;20041;-71
2023/08/23 10:48:24;;;;;;;3.83;2.70;;;;;;;28.20;30.63;101589.72;5040205;28;20212;-71
2023/08/23 10:50:54;;;;;;;3.72;2.58;;;;;;;28.28;30.75;101596.16;5041888;28;20126;-72
2023/08/23 10:53:24;;;;;;;5.65;3.22;;;;;;;28.35;30.26;101585.69;5043909;28;20045;-71
2023/08/23 10:55:56;;;;;;;5.50;3.70;;;;;;;28.38;29.92;101594.50;5044282;28;20500;-71
2023/08/23 10:58:25;;;;;;;4.63;3.30;;;;;;;28.45;30.00;101592.47;5041690;28;20534;-72
2023/08/23 11:00:53;;;;;;;6.55;4.20;;;;;;;28.47;30.29;101586.63;5036222;28;20041;-71
2023/08/23 11:03:24;;;;;;;6.25;3.83;;;;;;;28.52;29.79;101581.97;5043219;28;20049;-71
2023/08/23 11:05:52;;;;;;;5.40;3.40;;;;;;;28.55;30.29;101575.88;5044485;28;20049;-71
2023/08/23 11:08:21;;;;;;;8.70;3.80;;;;;;;28.59;30.36;101579.09;5040353;28;20065;-72
2023/08/23 11:10:49;;;;;;;5.95;3.47;;;;;;;28.65;29.58;101582.91;5031797;28;20158;-71
2023/08/23 11:13:17;;;;;;;4.60;3.22;;;;;;;28.68;29.88;101562.75;5042800;28;20037;-71
2023/08/23 11:15:47;;;;;;;4.50;2.78;;;;;;;28.73;29.98;101563.78;5042949;28;20056;-71
2023/08/23 11:18:16;;;;;;;6.55;3.30;;;;;;;28.76;29.82;101570.91;5037663;28;20051;-71
2023/08/23 11:23:41;;;;;;;4.25;2.70;;;;;;;28.84;29.09;101571.41;5010636;28;20518;-83
2023/08/23 11:30:07;;;;;;;4.60;2.47;;;;;;;28.90;29.04;101578.03;4919442;29;20707;-83
2023/08/23 11:40:45;;;;;;;3.58;2.13;;;;;;;29.00;28.33;101586.78;5015837;23;20068;-71
2023/08/23 11:43:16;;;;;;;4.13;2.30;;;;;;;29.04;28.28;101576.75;5053734;28;20051;-71
2023/08/23 11:45:52;;;;;;;3.88;2.47;;;;;;;29.05;27.85;101574.78;5045847;28;20076;-70
2023/08/23 11:48:23;;;;;;;3.50;2.25;;;;;;;29.09;27.88;101562.81;5041214;28;20041;-70